Time;durP1;ratioP1;P1;durP2;ratioP2;P2;SDS_P1;SDS_P2;PMS_P1;PMS_P2;Temp;Humidity;BMP_temperature;BMP_pressure;BME280_temperature;BME280_humidity;BME280_pressure;Samples;Min_cycle;Max_cycle;Signal;HPM_P1;HPM_P2
2022/09/12 00:03:06;;;;;;;4.13;2.85;;;;;;;;;;10292349;28;20126;-77
2022/09/12 00:08:09;;;;;;;4.47;2.85;;;;;;;;;;10274882;28;20045;-77
2022/09/12 00:13:12;;;;;;;3.50;2.67;;;;;;;;;;10291255;28;20125;-77
2022/09/12 00:18:17;;;;;;;3.22;2.70;;;;;;;;;;10273655;28;20101;-78
2022/09/12 00:23:21;;;;;;;4.18;2.97;;;;;;;;;;10274502;28;20073;-77
2022/09/12 00:28:24;;;;;;;3.20;2.65;;;;;;;;;;10292880;28;20039;-78
2022/09/12 00:33:29;;;;;;;3.33;2.70;;;;;;;;;;10275101;28;20043;-78
2022/09/12 00:38:37;;;;;;;3.03;2.42;;;;;;;;;;10293769;28;20069;-78
2022/09/12 00:43:42;;;;;;;3.40;2.83;;;;;;;;;;10286199;28;20066;-78
2022/09/12 00:48:54;;;;;;;2.97;2.50;;;;;;;;;;10275584;28;20051;-78
2022/09/12 00:53:59;;;;;;;3.75;2.03;;;;;;;;;;10275837;28;20051;-77
2022/09/12 00:59:11;;;;;;;2.65;2.28;;;;;;;;;;10275488;28;20085;-78
2022/09/12 01:04:17;;;;;;;4.70;2.13;;;;;;;;;;10274593;28;20127;-77
2022/09/12 01:09:23;;;;;;;2.85;2.38;;;;;;;;;;10290154;28;20126;-77
2022/09/12 01:14:26;;;;;;;3.03;2.30;;;;;;;;;;10274098;28;20090;-77
2022/09/12 01:20:01;;;;;;;3.25;2.50;;;;;;;;;;10289965;28;20420;-77
2022/09/12 01:25:13;;;;;;;4.82;2.63;;;;;;;;;;10268553;28;20129;-77
2022/09/12 01:30:45;;;;;;;2.55;1.88;;;;;;;;;;10287179;28;20043;-77
2022/09/12 01:36:03;;;;;;;2.95;2.20;;;;;;;;;;10289842;28;20058;-77
2022/09/12 01:41:12;;;;;;;2.85;2.15;;;;;;;;;;10289118;28;20047;-77
2022/09/12 01:46:19;;;;;;;4.55;2.22;;;;;;;;;;10288463;28;20043;-77
2022/09/12 01:51:26;;;;;;;2.15;1.92;;;;;;;;;;10271882;28;20573;-77
2022/09/12 01:56:32;;;;;;;4.10;2.08;;;;;;;;;;10271492;28;20042;-77
2022/09/12 02:01:38;;;;;;;;;;;;;;;;;;10297904;28;20038;-77
2022/09/12 02:06:44;;;;;;;;;;;;;;;;;;10271498;28;19933;-77
2022/09/12 02:11:49;;;;;;;2.88;2.10;;;;;;;;;;10288134;28;19922;-77
2022/09/12 02:16:58;;;;;;;5.95;2.65;;;;;;;;;;10270191;28;20051;-77
2022/09/12 02:22:04;;;;;;;2.90;2.53;;;;;;;;;;10287388;28;20462;-77
2022/09/12 02:27:12;;;;;;;2.97;2.67;;;;;;;;;;10269895;28;20771;-77
2022/09/12 02:32:26;;;;;;;3.72;2.17;;;;;;;;;;10269168;28;20054;-77
2022/09/12 02:37:40;;;;;;;2.85;2.33;;;;;;;;;;10269756;28;20429;-77
2022/09/12 02:42:44;;;;;;;2.75;2.25;;;;;;;;;;10265116;28;20508;-78
2022/09/12 02:47:53;;;;;;;4.93;2.28;;;;;;;;;;10291908;28;20113;-78
2022/09/12 02:52:58;;;;;;;2.95;2.28;;;;;;;;;;10272831;28;20380;-77
2022/09/12 02:58:03;;;;;;;2.63;2.17;;;;;;;;;;10272484;28;20047;-77
2022/09/12 03:03:22;;;;;;;2.50;2.05;;;;;;;;;;10290853;28;20066;-78
2022/09/12 03:08:51;;;;;;;4.47;2.13;;;;;;;;;;10272326;28;20511;-77
2022/09/12 03:14:04;;;;;;;3.88;2.60;;;;;;;;;;10283866;28;20055;-78
2022/09/12 03:19:16;;;;;;;2.45;1.80;;;;;;;;;;10271929;28;20042;-78
2022/09/12 03:24:26;;;;;;;5.05;2.33;;;;;;;;;;10272355;28;20050;-78
2022/09/12 03:29:30;;;;;;;3.03;2.20;;;;;;;;;;10288123;28;20069;-78
2022/09/12 03:34:35;;;;;;;3.25;2.10;;;;;;;;;;10293234;28;20507;-78
2022/09/12 03:39:38;;;;;;;2.63;2.10;;;;;;;;;;10294565;28;20038;-78
2022/09/12 03:44:41;;;;;;;10.20;2.10;;;;;;;;;;10294789;28;20058;-78
2022/09/12 03:49:46;;;;;;;4.50;1.90;;;;;;;;;;10294160;28;20051;-78
2022/09/12 03:54:50;;;;;;;4.35;2.17;;;;;;;;;;10276804;28;20054;-78
2022/09/12 03:59:53;;;;;;;2.83;2.10;;;;;;;;;;10276314;28;20141;-78
2022/09/12 04:04:58;;;;;;;4.05;2.22;;;;;;;;;;10276854;28;20050;-78
2022/09/12 04:10:01;;;;;;;3.10;1.88;;;;;;;;;;10275698;28;20622;-78
2022/09/12 04:15:06;;;;;;;2.28;1.85;;;;;;;;;;10274247;28;20418;-78
2022/09/12 04:20:11;;;;;;;2.40;1.95;;;;;;;;;;10275249;28;20049;-78
2022/09/12 04:25:14;;;;;;;3.20;2.03;;;;;;;;;;10275629;28;20650;-78
2022/09/12 04:30:18;;;;;;;3.85;2.55;;;;;;;;;;10292143;28;20522;-78
2022/09/12 04:35:23;;;;;;;4.65;2.72;;;;;;;;;;10275037;28;20059;-78
2022/09/12 04:40:26;;;;;;;4.13;2.53;;;;;;;;;;10273916;28;20053;-77
2022/09/12 04:45:30;;;;;;;4.38;3.10;;;;;;;;;;10273162;28;20042;-78
2022/09/12 04:50:35;;;;;;;3.22;2.72;;;;;;;;;;10273487;28;20053;-78
2022/09/12 04:55:40;;;;;;;3.53;2.65;;;;;;;;;;10267946;28;20130;-78
2022/09/12 05:00:44;;;;;;;5.63;3.25;;;;;;;;;;10295713;28;20126;-78
2022/09/12 05:05:49;;;;;;;6.30;2.95;;;;;;;;;;10277905;28;20502;-78
2022/09/12 05:10:54;;;;;;;4.20;3.03;;;;;;;;;;10277562;28;20043;-78
2022/09/12 05:15:59;;;;;;;3.88;2.75;;;;;;;;;;10276340;28;20035;-78
2022/09/12 05:21:08;;;;;;;3.95;2.72;;;;;;;;;;10276101;28;20047;-79
2022/09/12 05:26:13;;;;;;;6.20;2.30;;;;;;;;;;10276241;28;20474;-78
2022/09/12 05:31:19;;;;;;;4.63;2.33;;;;;;;;;;10292393;28;20045;-79
2022/09/12 05:36:28;;;;;;;7.83;2.83;;;;;;;;;;10292919;28;20114;-78
2022/09/12 05:41:34;;;;;;;3.83;2.80;;;;;;;;;;10275298;28;20093;-78
2022/09/12 05:46:39;;;;;;;4.32;2.85;;;;;;;;;;10282557;28;20410;-79
2022/09/12 05:51:45;;;;;;;4.90;2.30;;;;;;;;;;10275086;28;20078;-78
2022/09/12 05:56:49;;;;;;;2.03;1.83;;;;;;;;;;10291655;28;20125;-78
2022/09/12 06:01:52;;;;;;;3.33;2.25;;;;;;;;;;10273450;28;20089;-78
2022/09/12 06:06:57;;;;;;;2.38;2.08;;;;;;;;;;10273667;28;20396;-78
2022/09/12 06:12:00;;;;;;;2.17;1.90;;;;;;;;;;10272866;28;20670;-78
2022/09/12 06:17:04;;;;;;;4.10;3.03;;;;;;;;;;10273493;28;20451;-78
2022/09/12 06:22:09;;;;;;;2.55;2.30;;;;;;;;;;10272572;28;20081;-79
2022/09/12 06:27:13;;;;;;;2.40;1.95;;;;;;;;;;10272971;28;20034;-78
2022/09/12 06:32:16;;;;;;;1.80;1.65;;;;;;;;;;10272061;28;20483;-78
2022/09/12 06:37:21;;;;;;;1.75;1.45;;;;;;;;;;10272424;28;20400;-78
2022/09/12 06:42:25;;;;;;;1.33;1.23;;;;;;;;;;10271632;28;20415;-78
2022/09/12 06:47:37;;;;;;;1.75;1.52;;;;;;;;;;10280578;28;20035;-78
2022/09/12 06:52:43;;;;;;;1.52;1.40;;;;;;;;;;10279782;28;20137;-78
2022/09/12 06:57:46;;;;;;;4.35;2.83;;;;;;;;;;10288701;28;20109;-78
2022/09/12 07:02:54;;;;;;;2.88;2.45;;;;;;;;;;10270839;28;20067;-78
2022/09/12 07:07:59;;;;;;;6.93;4.13;;;;;;;;;;10273121;28;20042;-78
2022/09/12 07:13:02;;;;;;;5.70;3.42;;;;;;;;;;10278232;28;20043;-78
2022/09/12 07:18:06;;;;;;;6.35;3.38;;;;;;;;;;10281920;28;20034;-78
2022/09/12 07:23:11;;;;;;;6.15;4.40;;;;;;;;;;10297685;28;20716;-78
2022/09/12 07:28:14;;;;;;;4.38;2.60;;;;;;;;;;10297847;28;20059;-78
2022/09/12 07:33:18;;;;;;;7.78;4.82;;;;;;;;;;10283585;28;20073;-78
2022/09/12 07:38:23;;;;;;;7.13;3.40;;;;;;;;;;10279620;28;20049;-78
2022/09/12 07:43:26;;;;;;;6.70;3.28;;;;;;;;;;10279026;28;20138;-78
2022/09/12 07:48:32;;;;;;;4.40;2.55;;;;;;;;;;10278879;28;20101;-78
2022/09/12 07:53:39;;;;;;;6.13;2.53;;;;;;;;;;10270677;28;20550;-78
2022/09/12 07:58:43;;;;;;;5.72;3.88;;;;;;;;;;10277614;28;20280;-78
2022/09/12 08:03:49;;;;;;;5.00;3.70;;;;;;;;;;10295498;28;20070;-78
2022/09/12 08:08:55;;;;;;;5.57;3.47;;;;;;;;;;10294555;28;20558;-78
2022/09/12 08:14:01;;;;;;;3.17;2.38;;;;;;;;;;10294116;28;20058;-78
2022/09/12 08:19:05;;;;;;;2.30;1.92;;;;;;;;;;10275858;28;20403;-77
2022/09/12 08:24:12;;;;;;;2.00;1.58;;;;;;;;;;10277006;28;20073;-78
2022/09/12 08:29:16;;;;;;;2.13;1.70;;;;;;;;;;10275760;28;20039;-78
2022/09/12 08:34:19;;;;;;;4.22;2.65;;;;;;;;;;10292496;28;20121;-78
2022/09/12 08:39:27;;;;;;;2.72;2.38;;;;;;;;;;10275288;28;20043;-78
2022/09/12 08:44:48;;;;;;;2.80;2.35;;;;;;;;;;10273940;28;20043;-78
2022/09/12 08:50:01;;;;;;;3.03;2.40;;;;;;;;;;10268241;28;20105;-78
2022/09/12 08:55:23;;;;;;;2.38;2.08;;;;;;;;;;10289713;28;20081;-78
2022/09/12 09:00:31;;;;;;;3.13;2.70;;;;;;;;;;10273867;28;20638;-78
2022/09/12 09:05:46;;;;;;;1.95;1.63;;;;;;;;;;10291113;28;20039;-78
2022/09/12 09:10:59;;;;;;;3.17;2.65;;;;;;;;;;10267782;28;20050;-78
2022/09/12 09:16:12;;;;;;;4.57;3.85;;;;;;;;;;10272570;28;20550;-78
2022/09/12 09:21:21;;;;;;;4.25;3.35;;;;;;;;;;10272309;28;20125;-78
2022/09/12 09:26:31;;;;;;;2.67;2.30;;;;;;;;;;10272082;28;20054;-78
2022/09/12 09:31:38;;;;;;;2.33;2.10;;;;;;;;;;10288994;28;20057;-78
2022/09/12 09:36:49;;;;;;;1.83;1.58;;;;;;;;;;10266962;28;20659;-79
2022/09/12 09:42:07;;;;;;;1.92;1.73;;;;;;;;;;10275735;28;20407;-77
2022/09/12 09:47:12;;;;;;;2.13;1.88;;;;;;;;;;10292503;28;20126;-78
2022/09/12 09:52:20;;;;;;;3.67;2.92;;;;;;;;;;10291975;28;20423;-78
2022/09/12 09:57:45;;;;;;;3.70;1.30;;;;;;;;;;10274358;28;20035;-78
2022/09/12 10:03:04;;;;;;;4.72;3.25;;;;;;;;;;10284377;28;20058;-78
2022/09/12 10:08:08;;;;;;;8.98;3.15;;;;;;;;;;10290254;28;20085;-78
2022/09/12 10:13:25;;;;;;;6.03;4.57;;;;;;;;;;10271646;28;20050;-78
2022/09/12 10:18:37;;;;;;;3.70;2.90;;;;;;;;;;10289741;28;20066;-78
2022/09/12 10:23:40;;;;;;;1.63;1.52;;;;;;;;;;10289639;28;20078;-78
2022/09/12 10:28:49;;;;;;;1.73;1.48;;;;;;;;;;10288888;28;20414;-78
2022/09/12 10:33:53;;;;;;;3.65;2.60;;;;;;;;;;10271590;28;20126;-77
2022/09/12 10:39:00;;;;;;;1.63;1.52;;;;;;;;;;10271961;28;20047;-78
2022/09/12 10:44:13;;;;;;;1.55;1.33;;;;;;;;;;10277538;28;20043;-78
2022/09/12 10:49:26;;;;;;;1.20;1.00;;;;;;;;;;10278646;28;20039;-78
2022/09/12 10:54:30;;;;;;;1.38;1.27;;;;;;;;;;10278998;28;20050;-78
2022/09/12 10:59:47;;;;;;;1.17;1.02;;;;;;;;;;10295644;28;20051;-78
2022/09/12 11:05:01;;;;;;;2.13;1.65;;;;;;;;;;10272790;28;20051;-78
2022/09/12 11:10:29;;;;;;;1.30;1.20;;;;;;;;;;10295275;28;20077;-78
2022/09/12 11:15:51;;;;;;;1.42;1.30;;;;;;;;;;10269095;28;20380;-77
2022/09/12 11:21:08;;;;;;;2.25;2.03;;;;;;;;;;10271730;28;20141;-78
2022/09/12 11:26:24;;;;;;;1.25;1.15;;;;;;;;;;10294550;28;20426;-77
2022/09/12 11:31:56;;;;;;;1.33;1.20;;;;;;;;;;10292911;28;20042;-78
2022/09/12 11:37:16;;;;;;;1.23;1.13;;;;;;;;;;10269954;28;20047;-78
2022/09/12 11:42:26;;;;;;;0.80;0.80;;;;;;;;;;10276046;28;20074;-78
2022/09/12 11:47:33;;;;;;;1.15;1.05;;;;;;;;;;10276725;28;20507;-79
2022/09/12 11:52:39;;;;;;;1.38;1.10;;;;;;;;;;10296177;28;20042;-79
2022/09/12 11:57:45;;;;;;;;;;;;;;;;;;10280824;28;20054;-78
2022/09/12 12:03:03;;;;;;;0.80;0.60;;;;;;;;;;10297161;28;19922;-78
2022/09/12 12:08:07;;;;;;;2.75;1.02;;;;;;;;;;10278480;28;20078;-78
2022/09/12 12:13:20;;;;;;;1.42;1.08;;;;;;;;;;10277610;28;20065;-78
2022/09/12 12:18:42;;;;;;;2.10;1.00;;;;;;;;;;10296486;28;20671;-78
2022/09/12 12:24:14;;;;;;;2.17;1.00;;;;;;;;;;10287701;28;20059;-78
2022/09/12 12:29:40;;;;;;;2.33;1.15;;;;;;;;;;10275870;28;20097;-78
2022/09/12 12:34:48;;;;;;;1.92;1.02;;;;;;;;;;10271696;28;20046;-78
2022/09/12 12:39:59;;;;;;;1.27;1.17;;;;;;;;;;10294835;28;20073;-79
2022/09/12 12:45:24;;;;;;;1.52;1.15;;;;;;;;;;10277096;28;20407;-78
2022/09/12 12:50:31;;;;;;;2.90;1.10;;;;;;;;;;10275336;28;20038;-78
2022/09/12 12:55:37;;;;;;;1.08;0.95;;;;;;;;;;10276116;28;20046;-78
2022/09/12 13:00:41;;;;;;;1.75;1.20;;;;;;;;;;10285403;28;20054;-78
2022/09/12 13:05:48;;;;;;;1.08;1.00;;;;;;;;;;10291418;28;20042;-78
2022/09/12 13:10:54;;;;;;;1.15;1.02;;;;;;;;;;10292530;28;20051;-78
2022/09/12 13:15:57;;;;;;;;;;;;;;;;;;10274347;28;20046;-78
2022/09/12 13:21:08;;;;;;;1.27;1.17;;;;;;;;;;10274477;28;19977;-78
2022/09/12 13:26:14;;;;;;;0.90;0.80;;;;;;;;;;10273863;28;20462;-78
2022/09/12 13:31:21;;;;;;;0.75;0.75;;;;;;;;;;10290300;28;20049;-78
2022/09/12 13:36:37;;;;;;;1.05;0.98;;;;;;;;;;10290871;28;20051;-78
2022/09/12 13:42:03;;;;;;;0.95;0.85;;;;;;;;;;10272384;28;20054;-78
2022/09/12 13:47:13;;;;;;;1.33;1.20;;;;;;;;;;10289324;28;20047;-78
2022/09/12 13:52:20;;;;;;;1.05;0.90;;;;;;;;;;10289334;28;20034;-78
2022/09/12 13:57:33;;;;;;;1.13;0.93;;;;;;;;;;10289278;28;20046;-78
2022/09/12 14:02:39;;;;;;;1.00;0.68;;;;;;;;;;10281362;28;20047;-78
2022/09/12 14:07:54;;;;;;;0.90;0.63;;;;;;;;;;10282779;28;20053;-79
2022/09/12 14:12:58;;;;;;;0.60;0.60;;;;;;;;;;10292783;28;20058;-78
2022/09/12 14:18:03;;;;;;;0.75;0.68;;;;;;;;;;10272657;28;20035;-78
2022/09/12 14:23:18;;;;;;;1.20;1.00;;;;;;;;;;10291851;28;20046;-78
2022/09/12 14:28:22;;;;;;;1.13;0.95;;;;;;;;;;10290445;28;20047;-78
2022/09/12 14:33:25;;;;;;;0.80;0.80;;;;;;;;;;10290058;28;20054;-78
2022/09/12 14:38:36;;;;;;;0.73;0.73;;;;;;;;;;10289629;28;20059;-78
2022/09/12 14:43:43;;;;;;;0.90;0.73;;;;;;;;;;10290196;28;20042;-78
2022/09/12 14:48:51;;;;;;;0.60;0.57;;;;;;;;;;10272131;28;20053;-78
2022/09/12 14:53:57;;;;;;;0.60;0.60;;;;;;;;;;10288528;28;20050;-77
2022/09/12 14:59:15;;;;;;;;;;;;;;;;;;10288065;28;20130;-77
2022/09/12 15:04:39;;;;;;;0.52;0.43;;;;;;;;;;10287334;28;20413;-77
2022/09/12 15:09:44;;;;;;;0.75;0.70;;;;;;;;;;10280733;28;20054;-78
2022/09/12 15:14:49;;;;;;;0.80;0.47;;;;;;;;;;10287364;28;20069;-78
2022/09/12 15:19:52;;;;;;;0.80;0.80;;;;;;;;;;10275247;28;20534;-78
2022/09/12 15:24:57;;;;;;;0.80;0.65;;;;;;;;;;10270254;28;20061;-78
2022/09/12 15:30:01;;;;;;;0.70;0.70;;;;;;;;;;10273385;28;20047;-78
2022/09/12 15:35:09;;;;;;;0.90;0.70;;;;;;;;;;10276961;28;20101;-78
2022/09/12 15:40:14;;;;;;;0.70;0.57;;;;;;;;;;10275844;28;20791;-78
2022/09/12 15:45:21;;;;;;;0.75;0.75;;;;;;;;;;10275617;28;20051;-78
2022/09/12 15:50:24;;;;;;;1.00;0.90;;;;;;;;;;10275510;28;20046;-78
2022/09/12 15:55:31;;;;;;;0.85;0.80;;;;;;;;;;10291641;28;20127;-78
2022/09/12 16:00:35;;;;;;;0.50;0.50;;;;;;;;;;10286521;28;20050;-79
2022/09/12 16:05:40;;;;;;;0.70;0.70;;;;;;;;;;10286906;28;20526;-78
2022/09/12 16:10:46;;;;;;;0.63;0.60;;;;;;;;;;10273354;28;20059;-78
2022/09/12 16:15:49;;;;;;;0.65;0.65;;;;;;;;;;10291555;28;20131;-78
2022/09/12 16:20:53;;;;;;;0.93;0.77;;;;;;;;;;10290235;28;20054;-78
2022/09/12 16:25:58;;;;;;;1.42;0.70;;;;;;;;;;10274066;28;20082;-78
2022/09/12 16:31:04;;;;;;;1.77;0.57;;;;;;;;;;10290937;28;20049;-78
2022/09/12 16:36:09;;;;;;;0.47;0.47;;;;;;;;;;10290426;28;20051;-77
2022/09/12 16:41:15;;;;;;;0.43;0.43;;;;;;;;;;10291702;28;20525;-78
2022/09/12 16:46:21;;;;;;;0.88;0.63;;;;;;;;;;10275468;28;20404;-78
2022/09/12 16:51:26;;;;;;;1.03;0.50;;;;;;;;;;10275865;28;20200;-78
2022/09/12 16:56:31;;;;;;;0.40;0.40;;;;;;;;;;10292666;28;20042;-78
2022/09/12 17:01:35;;;;;;;0.90;0.70;;;;;;;;;;10275568;28;20384;-78
2022/09/12 17:06:38;;;;;;;0.60;0.60;;;;;;;;;;10291405;28;20047;-78
2022/09/12 17:11:43;;;;;;;0.88;0.50;;;;;;;;;;10274229;28;20053;-78
2022/09/12 17:16:47;;;;;;;1.42;0.70;;;;;;;;;;10275065;28;20443;-78
2022/09/12 17:21:53;;;;;;;1.38;0.90;;;;;;;;;;10272958;28;20073;-78
2022/09/12 17:26:58;;;;;;;1.73;0.80;;;;;;;;;;10273636;28;20047;-78
2022/09/12 17:32:01;;;;;;;1.27;0.77;;;;;;;;;;10290309;28;20042;-78
2022/09/12 17:37:05;;;;;;;0.93;0.77;;;;;;;;;;10290662;28;20053;-78
2022/09/12 17:42:09;;;;;;;0.73;0.50;;;;;;;;;;10290074;28;20046;-78
2022/09/12 17:47:13;;;;;;;0.90;0.80;;;;;;;;;;10272209;28;20042;-78
2022/09/12 17:52:16;;;;;;;0.90;0.60;;;;;;;;;;10288725;28;20066;-78
2022/09/12 17:57:21;;;;;;;1.77;0.93;;;;;;;;;;10289848;28;20042;-78
2022/09/12 18:02:24;;;;;;;1.02;0.93;;;;;;;;;;10281082;28;20047;-78
2022/09/12 18:07:27;;;;;;;1.10;1.00;;;;;;;;;;10288391;28;20069;-78
2022/09/12 18:12:35;;;;;;;1.00;0.90;;;;;;;;;;10287978;28;20404;-78
2022/09/12 18:17:39;;;;;;;1.67;0.88;;;;;;;;;;10270232;28;20055;-78
2022/09/12 18:22:42;;;;;;;1.48;0.90;;;;;;;;;;10287764;28;20054;-78
2022/09/12 18:27:47;;;;;;;1.60;0.98;;;;;;;;;;10287815;28;20055;-78
2022/09/12 18:32:50;;;;;;;3.50;1.20;;;;;;;;;;10288552;28;20047;-78
2022/09/12 18:37:54;;;;;;;1.13;0.90;;;;;;;;;;10270374;28;20692;-78
2022/09/12 18:42:59;;;;;;;1.20;0.90;;;;;;;;;;10270639;28;20120;-78
2022/09/12 18:48:03;;;;;;;0.80;0.80;;;;;;;;;;10286541;28;20057;-78
2022/09/12 18:53:07;;;;;;;0.95;0.90;;;;;;;;;;10270815;28;20039;-78
2022/09/12 18:58:11;;;;;;;0.98;0.90;;;;;;;;;;10272420;28;20511;-78
2022/09/12 19:03:15;;;;;;;1.42;1.10;;;;;;;;;;10274329;28;20042;-78
2022/09/12 19:08:18;;;;;;;1.30;1.08;;;;;;;;;;10280971;28;20392;-78
2022/09/12 19:13:22;;;;;;;2.08;1.00;;;;;;;;;;10280547;28;20046;-78
2022/09/12 19:18:26;;;;;;;1.15;1.05;;;;;;;;;;10279593;28;20455;-78
2022/09/12 19:23:31;;;;;;;1.25;1.05;;;;;;;;;;10297221;28;20430;-78
2022/09/12 19:28:36;;;;;;;1.50;1.13;;;;;;;;;;10278710;28;20047;-78
2022/09/12 19:33:40;;;;;;;2.03;1.02;;;;;;;;;;10296641;28;20047;-78
2022/09/12 19:38:43;;;;;;;0.82;0.82;;;;;;;;;;10296075;28;20055;-78
2022/09/12 19:43:48;;;;;;;0.77;0.77;;;;;;;;;;10295598;28;20384;-78
2022/09/12 19:48:52;;;;;;;1.10;1.00;;;;;;;;;;10278129;28;20388;-78
2022/09/12 19:53:56;;;;;;;1.10;1.00;;;;;;;;;;10277763;28;20051;-78
2022/09/12 19:59:00;;;;;;;1.70;1.25;;;;;;;;;;10277305;28;20050;-78
2022/09/12 20:04:04;;;;;;;1.02;0.93;;;;;;;;;;10276764;28;20068;-78
2022/09/12 20:09:07;;;;;;;0.77;0.77;;;;;;;;;;10275951;28;20507;-78
2022/09/12 20:14:12;;;;;;;1.10;1.00;;;;;;;;;;10275869;28;20447;-78
2022/09/12 20:19:16;;;;;;;3.75;1.05;;;;;;;;;;10293177;28;20047;-77
2022/09/12 20:24:19;;;;;;;1.92;1.25;;;;;;;;;;10293805;28;20059;-78
2022/09/12 20:29:24;;;;;;;1.98;0.98;;;;;;;;;;10293347;28;20070;-78
2022/09/12 20:34:28;;;;;;;1.30;1.00;;;;;;;;;;10293537;28;20068;-78
2022/09/12 20:39:31;;;;;;;3.00;1.13;;;;;;;;;;10274884;28;20522;-78
2022/09/12 20:44:36;;;;;;;1.92;1.13;;;;;;;;;;10274875;28;20062;-77
2022/09/12 20:49:39;;;;;;;1.23;0.98;;;;;;;;;;10267257;28;20053;-78
2022/09/12 20:54:42;;;;;;;1.23;1.10;;;;;;;;;;10291929;28;20396;-78
2022/09/12 20:59:47;;;;;;;1.10;1.00;;;;;;;;;;10274651;28;20396;-78
2022/09/12 21:04:50;;;;;;;1.38;1.13;;;;;;;;;;10273916;28;20051;-78
2022/09/12 21:09:53;;;;;;;2.13;1.00;;;;;;;;;;10273236;28;20049;-77
2022/09/12 21:14:58;;;;;;;1.27;1.08;;;;;;;;;;10291012;28;20057;-78
2022/09/12 21:20:02;;;;;;;1.70;1.30;;;;;;;;;;10293973;28;20042;-78
2022/09/12 21:25:08;;;;;;;1.20;1.02;;;;;;;;;;10293680;28;20046;-78
2022/09/12 21:30:13;;;;;;;1.90;1.02;;;;;;;;;;10293838;28;20054;-78
2022/09/12 21:35:17;;;;;;;1.20;1.10;;;;;;;;;;10276373;28;20050;-77
2022/09/12 21:40:20;;;;;;;1.65;1.15;;;;;;;;;;10275645;28;20054;-78
2022/09/12 21:45:25;;;;;;;1.45;1.20;;;;;;;;;;10274399;28;20554;-78
2022/09/12 21:50:28;;;;;;;1.63;1.38;;;;;;;;;;10291706;28;20581;-78
2022/09/12 21:55:31;;;;;;;1.48;1.02;;;;;;;;;;10274335;28;20055;-78
2022/09/12 22:00:37;;;;;;;1.35;1.00;;;;;;;;;;10292015;28;20039;-78
2022/09/12 22:05:40;;;;;;;0.83;0.80;;;;;;;;;;10283198;28;20050;-77
2022/09/12 22:10:43;;;;;;;1.20;1.00;;;;;;;;;;10290194;28;20134;-77
2022/09/12 22:15:52;;;;;;;2.00;1.20;;;;;;;;;;10288660;28;20053;-77
2022/09/12 22:21:06;;;;;;;2.20;0.90;;;;;;;;;;10289014;28;20051;-78
2022/09/12 22:26:09;;;;;;;4.20;1.17;;;;;;;;;;10289298;28;20035;-77
2022/09/12 22:31:15;;;;;;;2.10;1.00;;;;;;;;;;10288610;28;20047;-77
2022/09/12 22:36:18;;;;;;;1.40;1.03;;;;;;;;;;10289247;28;20138;-78
2022/09/12 22:41:21;;;;;;;1.55;1.00;;;;;;;;;;10296677;28;20522;-78
2022/09/12 22:46:26;;;;;;;1.38;0.90;;;;;;;;;;10296481;28;20053;-77
2022/09/12 22:51:30;;;;;;;1.92;1.10;;;;;;;;;;10278962;28;20045;-78
2022/09/12 22:56:33;;;;;;;1.10;0.90;;;;;;;;;;10295999;28;20035;-78
2022/09/12 23:01:40;;;;;;;1.10;1.00;;;;;;;;;;10270801;28;20138;-78
2022/09/12 23:06:43;;;;;;;2.78;0.90;;;;;;;;;;10277924;28;20050;-78
2022/09/12 23:11:46;;;;;;;1.20;1.00;;;;;;;;;;10277879;28;20047;-77
2022/09/12 23:16:51;;;;;;;0.90;0.75;;;;;;;;;;10294831;28;20065;-78
2022/09/12 23:21:54;;;;;;;1.02;0.80;;;;;;;;;;10294647;28;20050;-78
2022/09/12 23:26:58;;;;;;;0.98;0.88;;;;;;;;;;10294389;28;20051;-78
2022/09/12 23:32:03;;;;;;;1.83;1.00;;;;;;;;;;10279197;28;20054;-78
2022/09/12 23:37:06;;;;;;;1.38;1.17;;;;;;;;;;10280066;28;20075;-78
2022/09/12 23:42:10;;;;;;;2.75;0.98;;;;;;;;;;10296291;28;20039;-78
2022/09/12 23:47:16;;;;;;;1.00;0.90;;;;;;;;;;10296200;28;20496;-78
2022/09/12 23:52:19;;;;;;;1.30;0.80;;;;;;;;;;10295005;28;20631;-78
2022/09/12 23:57:22;;;;;;;3.30;1.13;;;;;;;;;;10278135;28;20043;-78
